Time;durP1;ratioP1;P1;durP2;ratioP2;P2;SDS_P1;SDS_P2;PMS_P1;PMS_P2;Temp;Humidity;BMP_temperature;BMP_pressure;BME280_temperature;BME280_humidity;BME280_pressure;Samples;Min_cycle;Max_cycle;Signal;HPM_P1;HPM_P2
2022/03/22 00:01:06;;;;;;;13.32;7.75;;;;;;;1.41;47.59;102557.25;4906446;29;20489;-71
2022/03/22 00:03:31;;;;;;;14.95;8.88;;;;;;;1.39;47.53;102552.75;4901625;29;20040;-71
2022/03/22 00:05:58;;;;;;;12.02;7.75;;;;;;;1.33;47.72;102550.66;4903401;29;20028;-71
2022/03/22 00:08:23;;;;;;;14.52;8.75;;;;;;;1.29;47.11;102553.91;4904436;29;20527;-71
2022/03/22 00:10:49;;;;;;;12.73;7.80;;;;;;;1.27;47.50;102545.09;4906154;29;20040;-71
2022/03/22 00:13:14;;;;;;;16.98;8.23;;;;;;;1.25;47.64;102547.56;4899957;29;20047;-71
2022/03/22 00:15:39;;;;;;;16.25;9.40;;;;;;;1.25;47.79;102546.69;4906041;29;20040;-71
2022/03/22 00:18:05;;;;;;;15.55;8.23;;;;;;;1.21;46.69;102543.00;4904746;29;20509;-71
2022/03/22 00:20:31;;;;;;;14.23;7.78;;;;;;;1.16;47.83;102549.59;4904526;29;20048;-71
2022/03/22 00:22:58;;;;;;;14.25;8.32;;;;;;;1.07;47.40;102549.00;4906262;29;20044;-71
2022/03/22 00:25:24;;;;;;;13.68;8.82;;;;;;;1.02;47.35;102545.19;4903795;29;20037;-71
2022/03/22 00:27:51;;;;;;;17.27;9.63;;;;;;;1.03;47.32;102541.81;4905136;29;20040;-71
2022/03/22 00:30:22;;;;;;;15.45;9.25;;;;;;;1.02;47.98;102545.19;4906390;29;20032;-71
2022/03/22 00:32:52;;;;;;;20.40;9.15;;;;;;;0.94;47.65;102536.91;4903344;29;20036;-71
2022/03/22 00:35:18;;;;;;;12.77;8.27;;;;;;;0.82;47.25;102542.22;4912843;29;20071;-71
2022/03/22 00:37:46;;;;;;;14.90;8.23;;;;;;;0.83;48.02;102549.19;4905984;29;20028;-71
2022/03/22 00:40:16;;;;;;;16.05;8.10;;;;;;;0.87;47.57;102543.41;4909500;29;20040;-71
2022/03/22 00:42:46;;;;;;;14.63;8.10;;;;;;;0.90;47.23;102536.63;4905875;29;20044;-71
2022/03/22 00:45:17;;;;;;;15.77;9.40;;;;;;;0.90;47.76;102534.91;4909115;29;20515;-71
2022/03/22 00:47:49;;;;;;;15.25;8.95;;;;;;;0.85;48.74;102542.41;4912264;29;20037;-71
2022/03/22 00:50:17;;;;;;;;;;;;;;;0.78;48.66;102531.50;4907716;29;20032;-71
2022/03/22 00:52:43;;;;;;;14.82;8.60;;;;;;;0.76;48.18;102536.63;4909200;29;19919;-71
2022/03/22 00:55:11;;;;;;;20.20;11.17;;;;;;;0.75;48.68;102534.81;4906987;29;20403;-71
2022/03/22 00:57:38;;;;;;;20.73;10.57;;;;;;;0.72;48.58;102529.41;4907643;29;20036;-71
2022/03/22 01:00:06;;;;;;;17.65;9.23;;;;;;;0.70;49.06;102533.59;4908930;29;20048;-72
2022/03/22 01:02:34;;;;;;;13.02;8.77;;;;;;;0.67;48.33;102528.19;4901074;29;20048;-71
2022/03/22 01:05:01;;;;;;;16.37;8.70;;;;;;;0.66;47.82;102523.81;4907986;29;20039;-71
2022/03/22 01:07:27;;;;;;;15.37;9.83;;;;;;;0.62;48.58;102527.00;4906186;29;20032;-72
2022/03/22 01:09:53;;;;;;;15.98;9.30;;;;;;;0.58;48.70;102525.91;4906022;29;20482;-72
2022/03/22 01:12:18;;;;;;;14.18;8.32;;;;;;;0.53;48.77;102526.41;4907411;29;20044;-72
2022/03/22 01:14:44;;;;;;;18.50;10.50;;;;;;;0.43;48.85;102533.56;4902261;29;20408;-71
2022/03/22 01:17:09;;;;;;;16.35;8.98;;;;;;;0.35;49.49;102524.38;4907683;29;20119;-71
2022/03/22 01:19:37;;;;;;;17.47;10.07;;;;;;;0.31;48.59;102527.53;4906158;29;20109;-71
2022/03/22 01:22:03;;;;;;;12.63;7.80;;;;;;;0.27;49.21;102535.94;4902338;29;20036;-71
2022/03/22 01:24:29;;;;;;;15.13;9.63;;;;;;;0.14;49.96;102525.53;4907900;29;20079;-71
2022/03/22 01:26:54;;;;;;;16.07;8.80;;;;;;;0.03;49.85;102527.38;4907653;29;20044;-71
2022/03/22 01:29:20;;;;;;;16.00;9.23;;;;;;;-0.04;49.91;102531.25;4906187;29;20036;-71
2022/03/22 01:31:45;;;;;;;14.00;8.37;;;;;;;-0.12;50.65;102535.00;4908450;29;20064;-71
2022/03/22 01:34:11;;;;;;;14.23;8.67;;;;;;;-0.17;49.83;102532.91;4906222;29;20055;-71
2022/03/22 01:36:37;;;;;;;15.20;8.23;;;;;;;-0.24;50.57;102526.38;4907157;29;20032;-71
2022/03/22 01:39:02;;;;;;;14.00;8.57;;;;;;;-0.28;50.58;102527.84;4907882;29;20438;-71
2022/03/22 01:41:28;;;;;;;14.00;8.87;;;;;;;-0.29;50.93;102522.56;4905350;29;20565;-71
2022/03/22 01:43:53;;;;;;;16.50;10.40;;;;;;;-0.30;51.03;102523.34;4904344;29;20040;-71
2022/03/22 01:46:23;;;;;;;16.67;10.00;;;;;;;-0.33;50.82;102530.94;4907567;29;20039;-72
2022/03/22 01:48:49;;;;;;;16.73;9.50;;;;;;;-0.38;51.05;102522.81;4907633;29;20044;-71
2022/03/22 01:51:17;;;;;;;16.63;8.87;;;;;;;-0.42;51.36;102527.69;4904664;29;20495;-71
2022/03/22 01:53:43;;;;;;;14.87;8.57;;;;;;;-0.47;51.73;102522.19;4907697;29;20044;-71
2022/03/22 01:56:08;;;;;;;18.13;9.03;;;;;;;-0.52;52.02;102533.94;4906960;29;20052;-72
2022/03/22 01:58:34;;;;;;;17.80;9.07;;;;;;;-0.59;52.44;102530.00;4905865;29;20032;-72
2022/03/22 02:06:32;;;;;;;15.23;8.30;;;;;;;-0.78;53.03;102529.47;4906451;29;20087;-71
2022/03/22 02:08:58;;;;;;;14.80;9.60;;;;;;;-0.90;53.54;102527.78;4900409;29;20084;-71
2022/03/22 02:11:24;;;;;;;16.37;9.20;;;;;;;-0.93;54.15;102531.88;4906885;29;20036;-71
2022/03/22 02:13:50;;;;;;;16.47;9.30;;;;;;;-0.96;53.54;102524.75;4904189;29;20093;-71
2022/03/22 02:16:15;;;;;;;14.17;8.77;;;;;;;-0.99;54.57;102524.53;4907560;29;20407;-71
2022/03/22 02:18:42;;;;;;;15.00;8.87;;;;;;;-1.04;53.99;102525.91;4904831;29;20036;-71
2022/03/22 02:21:09;;;;;;;15.73;8.53;;;;;;;-1.08;54.09;102521.28;4906880;29;20529;-71
2022/03/22 02:23:49;;;;;;;16.17;8.93;;;;;;;-1.11;55.38;102513.28;4906658;29;20051;-71
2022/03/22 02:26:16;;;;;;;16.53;9.13;;;;;;;-1.08;54.46;102513.50;4902724;29;20411;-71
2022/03/22 02:28:42;;;;;;;16.73;10.10;;;;;;;-1.04;53.72;102517.22;4904707;29;20135;-71
2022/03/22 02:31:07;;;;;;;14.57;8.33;;;;;;;-0.99;53.36;102510.69;4907079;29;20119;-71
2022/03/22 02:33:33;;;;;;;17.00;9.53;;;;;;;-1.00;54.06;102514.06;4904773;29;20040;-71
2022/03/22 02:35:58;;;;;;;14.70;8.77;;;;;;;-1.06;54.25;102511.94;4907109;29;20043;-71
2022/03/22 02:38:24;;;;;;;16.30;9.03;;;;;;;-1.11;54.74;102514.16;4905848;29;20043;-71
2022/03/22 02:40:49;;;;;;;16.27;8.33;;;;;;;-1.10;54.96;102515.09;4905271;29;20048;-71
2022/03/22 02:43:15;;;;;;;16.30;10.10;;;;;;;-1.05;55.15;102513.72;4906666;29;20051;-71
2022/03/22 02:45:40;;;;;;;17.93;9.13;;;;;;;-1.04;54.49;102518.13;4901221;29;20068;-71
2022/03/22 02:48:06;;;;;;;15.70;9.07;;;;;;;-1.04;53.72;102512.94;4905203;29;20036;-71
2022/03/22 02:50:31;;;;;;;16.17;9.67;;;;;;;-1.06;55.10;102518.81;4906180;29;20044;-71
2022/03/22 02:52:57;;;;;;;17.27;9.73;;;;;;;-1.08;55.57;102505.72;4904294;29;20044;-71
2022/03/22 02:55:22;;;;;;;18.73;9.70;;;;;;;-1.11;55.62;102518.47;4907172;29;20032;-71
2022/03/22 02:57:48;;;;;;;15.87;9.00;;;;;;;-1.17;55.08;102526.69;4904585;29;20507;-71
2022/03/22 03:00:14;;;;;;;15.13;9.00;;;;;;;-1.25;55.38;102514.88;4906013;29;20099;-71
2022/03/22 03:02:42;;;;;;;15.90;9.77;;;;;;;-1.33;56.59;102522.06;4906215;29;20035;-71
2022/03/22 03:05:08;;;;;;;17.37;9.20;;;;;;;-1.33;55.86;102510.81;4903155;29;20033;-71
2022/03/22 03:07:34;;;;;;;16.53;9.27;;;;;;;-1.37;56.05;102520.03;4906577;29;20039;-71
2022/03/22 03:09:59;;;;;;;15.50;9.47;;;;;;;-1.37;56.04;102524.31;4905422;29;20511;-71
2022/03/22 03:12:24;;;;;;;16.87;8.60;;;;;;;-1.38;55.40;102520.84;4904751;29;20492;-71
2022/03/22 03:14:50;;;;;;;16.23;8.70;;;;;;;-1.36;55.27;102526.16;4903439;29;20067;-72
2022/03/22 03:17:15;;;;;;;15.03;8.80;;;;;;;-1.38;55.76;102523.44;4906874;29;20036;-72
2022/03/22 03:19:41;;;;;;;15.53;9.43;;;;;;;-1.38;55.69;102526.00;4904919;29;20052;-71
2022/03/22 03:22:08;;;;;;;16.07;9.70;;;;;;;-1.37;55.42;102521.72;4905108;29;20040;-71
2022/03/22 03:24:35;;;;;;;15.03;8.17;;;;;;;-1.34;55.36;102519.34;4903946;29;20044;-71
2022/03/22 03:27:01;;;;;;;16.50;9.63;;;;;;;-1.36;55.63;102515.78;4904275;29;20093;-71
2022/03/22 03:29:26;;;;;;;15.73;9.13;;;;;;;-1.39;55.31;102520.72;4906133;29;20044;-71
2022/03/22 03:31:52;;;;;;;14.13;8.37;;;;;;;-1.42;55.54;102518.78;4905432;29;20071;-71
2022/03/22 03:34:18;;;;;;;16.40;9.10;;;;;;;-1.44;55.94;102522.06;4904043;29;20122;-71
2022/03/22 03:36:44;;;;;;;17.93;9.47;;;;;;;-1.47;56.30;102527.00;4903724;29;20126;-72
2022/03/22 03:39:10;;;;;;;14.73;9.20;;;;;;;-1.49;55.98;102524.31;4906298;29;20044;-71
2022/03/22 03:41:54;;;;;;;15.67;9.47;;;;;;;-1.51;55.27;102530.19;4905036;29;20492;-72
2022/03/22 03:47:07;;;;;;;15.43;7.87;;;;;;;-1.59;56.10;102530.50;4901593;29;20045;-72
2022/03/22 03:49:41;;;;;;;15.53;8.90;;;;;;;-1.66;56.61;102535.09;4905016;29;20054;-71
2022/03/22 03:52:09;;;;;;;17.40;9.77;;;;;;;-1.72;56.12;102538.13;4910790;29;20063;-72
2022/03/22 03:54:35;;;;;;;16.83;10.17;;;;;;;-1.71;55.64;102534.75;4907501;29;20033;-71
2022/03/22 03:57:00;;;;;;;15.83;9.03;;;;;;;-1.68;55.97;102537.56;4904508;29;20567;-72
2022/03/22 03:59:27;;;;;;;16.80;10.07;;;;;;;-1.67;55.98;102541.97;4906812;29;20068;-71
2022/03/22 04:01:53;;;;;;;16.20;9.80;;;;;;;-1.71;55.75;102531.25;4900146;29;20067;-71
2022/03/22 04:04:18;;;;;;;16.60;10.00;;;;;;;-1.71;55.71;102541.63;4905613;29;20050;-71
2022/03/22 04:06:44;;;;;;;16.50;9.10;;;;;;;-1.69;54.90;102535.78;4904995;29;20119;-72
2022/03/22 04:09:09;;;;;;;16.67;10.27;;;;;;;-1.65;55.06;102534.31;4909717;29;20044;-72
2022/03/22 04:11:34;;;;;;;15.17;8.03;;;;;;;-1.66;55.56;102530.81;4905379;29;20080;-71
2022/03/22 04:14:00;;;;;;;16.53;9.70;;;;;;;-1.65;55.24;102536.88;4907301;29;20072;-71
2022/03/22 04:16:25;;;;;;;16.47;9.40;;;;;;;-1.62;54.94;102542.31;4908822;29;20066;-72
2022/03/22 04:18:50;;;;;;;17.67;10.70;;;;;;;-1.62;56.16;102532.88;4909298;29;20041;-72
2022/03/22 04:21:16;;;;;;;16.93;10.47;;;;;;;-1.60;55.47;102536.47;4909587;29;20487;-72
2022/03/22 04:23:42;;;;;;;19.67;12.60;;;;;;;-1.62;55.98;102542.31;4907177;29;20508;-71
2022/03/22 04:26:07;;;;;;;17.03;10.63;;;;;;;-1.63;55.42;102536.22;4909231;29;20036;-71
2022/03/22 04:34:01;;;;;;;15.73;8.50;;;;;;;-1.69;55.81;102537.47;4904818;29;20044;-71
2022/03/22 04:36:28;;;;;;;14.60;8.93;;;;;;;-1.71;56.19;102532.16;4908237;29;20036;-71
2022/03/22 04:38:54;;;;;;;16.77;9.27;;;;;;;-1.70;55.56;102535.63;4903807;29;20112;-71
2022/03/22 04:41:20;;;;;;;19.87;9.87;;;;;;;-1.72;56.19;102532.94;4907062;29;20479;-72
2022/03/22 04:43:46;;;;;;;17.73;10.23;;;;;;;-1.73;55.49;102538.00;4905898;29;20415;-71
2022/03/22 04:46:11;;;;;;;18.27;9.73;;;;;;;-1.75;55.54;102534.41;4908135;29;20044;-71
2022/03/22 04:48:37;;;;;;;17.77;9.93;;;;;;;-1.75;55.99;102544.78;4906956;29;20031;-72
2022/03/22 04:56:48;;;;;;;15.23;9.37;;;;;;;-1.79;56.04;102547.09;4907115;29;20040;-71
2022/03/22 04:59:15;;;;;;;17.40;9.67;;;;;;;-1.77;56.03;102548.13;4906129;29;20142;-71
2022/03/22 05:01:42;;;;;;;21.60;9.93;;;;;;;-1.75;56.36;102549.97;4906430;29;20032;-71
2022/03/22 05:04:09;;;;;;;14.90;9.33;;;;;;;-1.77;55.96;102555.91;4903465;29;20036;-72
2022/03/22 05:06:37;;;;;;;19.47;11.43;;;;;;;-1.80;56.21;102553.09;4905723;29;20036;-71
2022/03/22 05:09:04;;;;;;;15.67;9.50;;;;;;;-1.78;56.33;102551.53;4908126;29;20047;-72
2022/03/22 05:11:33;;;;;;;16.33;9.77;;;;;;;-1.76;55.70;102556.78;4905132;29;20050;-72
2022/03/22 05:13:59;;;;;;;29.70;14.97;;;;;;;-1.72;55.57;102558.84;4902946;29;20045;-73
2022/03/22 05:16:25;;;;;;;22.20;11.67;;;;;;;-1.72;56.08;102558.84;4901598;29;20063;-72
2022/03/22 05:18:51;;;;;;;20.33;11.33;;;;;;;-1.68;55.40;102560.84;4903542;29;20066;-73
2022/03/22 05:21:17;;;;;;;23.47;11.80;;;;;;;-1.60;55.83;102558.84;4898920;29;20040;-72
2022/03/22 05:23:45;;;;;;;20.87;12.27;;;;;;;-1.53;55.01;102558.53;4900528;29;20028;-72
2022/03/22 05:26:14;;;;;;;19.10;11.00;;;;;;;-1.46;55.18;102563.41;4897646;29;20047;-72
2022/03/22 05:28:40;;;;;;;98.23;47.17;;;;;;;-1.41;55.36;102559.47;4897448;29;20051;-72
2022/03/22 05:31:09;;;;;;;29.33;17.30;;;;;;;-1.37;56.08;102558.88;4898857;29;20036;-72
2022/03/22 05:33:35;;;;;;;26.57;13.87;;;;;;;-1.36;55.79;102552.94;4899340;29;20076;-72
2022/03/22 05:36:01;;;;;;;21.50;12.40;;;;;;;-1.30;55.88;102562.84;4898282;29;20092;-72
2022/03/22 05:38:27;;;;;;;18.27;11.60;;;;;;;-1.26;55.62;102563.97;4894794;29;20456;-72
2022/03/22 05:40:53;;;;;;;17.10;10.67;;;;;;;-1.21;56.12;102566.09;4899013;29;20418;-72
2022/03/22 05:43:19;;;;;;;17.33;9.77;;;;;;;-1.17;55.31;102565.56;4905431;29;20068;-72
2022/03/22 05:45:51;;;;;;;16.63;9.37;;;;;;;-1.11;56.23;102567.69;4903841;29;20526;-72
2022/03/22 05:48:17;;;;;;;13.27;7.05;;;;;;;-1.04;55.35;102566.47;4901568;29;20040;-72
2022/03/22 05:50:42;;;;;;;15.97;9.30;;;;;;;-0.95;55.82;102575.81;4906372;29;20107;-72
2022/03/22 05:53:10;;;;;;;17.60;9.90;;;;;;;-0.81;55.73;102568.13;4902164;29;20036;-72
2022/03/22 05:55:36;;;;;;;18.63;10.97;;;;;;;-0.68;55.04;102563.97;4903603;29;20041;-71
2022/03/22 05:58:02;;;;;;;17.40;9.83;;;;;;;-0.55;55.06;102564.81;4899447;29;20462;-70
2022/03/22 06:00:28;;;;;;;18.20;10.13;;;;;;;-0.36;55.00;102564.44;4899498;29;20404;-71
2022/03/22 06:02:53;;;;;;;19.17;10.43;;;;;;;-0.09;54.79;102568.06;4907559;29;20036;-71
2022/03/22 06:05:19;;;;;;;20.10;10.80;;;;;;;0.15;53.93;102559.38;4907633;29;20043;-71
2022/03/22 06:07:44;;;;;;;17.37;10.03;;;;;;;0.39;54.01;102559.22;4905193;29;20867;-71
2022/03/22 06:10:14;;;;;;;19.57;10.33;;;;;;;0.61;53.82;102564.19;4906368;29;20071;-71
2022/03/22 06:12:51;;;;;;;18.37;11.13;;;;;;;0.77;53.60;102556.59;4905615;29;20061;-71
2022/03/22 06:15:17;;;;;;;20.10;11.02;;;;;;;0.93;53.17;102557.63;4915381;29;20040;-71
2022/03/22 06:17:46;;;;;;;21.67;12.07;;;;;;;1.15;52.45;102560.78;4904700;29;20419;-71
2022/03/22 06:20:13;;;;;;;20.20;11.35;;;;;;;1.31;51.50;102561.00;4904359;29;20048;-71
2022/03/22 06:22:39;;;;;;;19.08;11.85;;;;;;;1.51;51.29;102564.84;4901056;29;20088;-71
2022/03/22 06:25:04;;;;;;;24.95;13.35;;;;;;;1.72;50.35;102564.41;4906965;29;20075;-71
2022/03/22 06:27:30;;;;;;;23.75;13.95;;;;;;;1.92;50.46;102560.44;4905946;29;20029;-71
2022/03/22 06:29:55;;;;;;;20.85;13.38;;;;;;;2.11;49.54;102565.06;4904992;29;20185;-71
2022/03/22 06:32:20;;;;;;;22.30;14.07;;;;;;;2.29;49.08;102557.44;4907374;29;20044;-71
2022/03/22 06:34:47;;;;;;;19.63;12.25;;;;;;;2.45;49.66;102567.09;4907266;29;20040;-71
2022/03/22 06:37:13;;;;;;;19.20;12.60;;;;;;;2.59;48.77;102572.31;4905809;29;20037;-71
2022/03/22 06:39:38;;;;;;;19.52;12.60;;;;;;;2.72;48.72;102576.50;4905336;29;20059;-71
2022/03/22 06:42:04;;;;;;;23.48;14.18;;;;;;;2.82;49.68;102576.25;4907191;29;20040;-71
2022/03/22 06:44:30;;;;;;;28.83;14.05;;;;;;;2.91;49.65;102570.69;4903963;29;20129;-71
2022/03/22 06:46:55;;;;;;;19.55;12.80;;;;;;;3.02;49.68;102571.28;4905411;29;20092;-71
2022/03/22 06:49:23;;;;;;;19.98;12.52;;;;;;;3.12;49.37;102581.44;4907400;29;20059;-71
2022/03/22 06:51:49;;;;;;;20.08;12.18;;;;;;;3.24;49.85;102573.41;4903610;29;20040;-71
2022/03/22 06:54:14;;;;;;;18.08;11.68;;;;;;;3.35;48.94;102574.00;4918143;29;20414;-71
2022/03/22 06:56:39;;;;;;;20.83;13.27;;;;;;;3.47;48.52;102580.81;4897570;29;20040;-71
2022/03/22 06:59:05;;;;;;;20.85;12.25;;;;;;;3.61;47.81;102580.66;4905757;29;20149;-71
2022/03/22 07:01:31;;;;;;;16.50;11.93;;;;;;;3.72;47.40;102575.22;4901840;29;20071;-71
2022/03/22 07:03:57;;;;;;;17.70;11.23;;;;;;;3.88;46.83;102578.69;4902311;29;20115;-71
2022/03/22 07:06:22;;;;;;;21.77;11.95;;;;;;;4.00;46.67;102574.09;4904205;29;20036;-71
2022/03/22 07:08:48;;;;;;;23.10;13.68;;;;;;;4.13;46.50;102586.09;4907555;29;20036;-71
2022/03/22 07:13:57;;;;;;;28.80;18.75;;;;;;;4.35;46.09;102578.56;4905595;29;20115;-70
2022/03/22 07:16:27;;;;;;;27.48;18.35;;;;;;;4.46;46.34;102575.63;4904649;29;20128;-71
2022/03/22 07:18:53;;;;;;;31.98;20.73;;;;;;;4.58;46.07;102584.06;4900760;29;20429;-71
2022/03/22 07:21:19;;;;;;;30.05;19.05;;;;;;;4.70;46.19;102578.56;4905653;29;20060;-70
2022/03/22 07:23:44;;;;;;;25.73;18.23;;;;;;;4.81;45.80;102574.78;4906134;29;20040;-71
2022/03/22 07:26:10;;;;;;;34.40;23.05;;;;;;;4.90;45.62;102579.56;4904468;29;20572;-71
2022/03/22 07:28:35;;;;;;;28.73;20.52;;;;;;;5.00;45.12;102579.19;4906877;29;20399;-71
2022/03/22 07:31:01;;;;;;;30.55;20.33;;;;;;;5.09;45.71;102578.78;4903352;29;20415;-71
2022/03/22 07:33:27;;;;;;;28.52;17.17;;;;;;;5.18;45.18;102576.59;4903695;29;20051;-71
2022/03/22 07:35:52;;;;;;;31.33;18.92;;;;;;;5.23;44.82;102578.59;4903739;29;20036;-71
2022/03/22 07:38:18;;;;;;;27.17;20.27;;;;;;;5.34;44.48;102580.84;4906575;29;20523;-71
2022/03/22 07:40:43;;;;;;;38.63;25.20;;;;;;;5.46;44.44;102578.81;4907032;29;20123;-71
2022/03/22 07:43:08;;;;;;;27.83;19.75;;;;;;;5.56;43.76;102581.03;4907625;29;20058;-71
2022/03/22 07:45:36;;;;;;;26.35;17.38;;;;;;;5.66;43.25;102583.28;4908964;29;20857;-70
2022/03/22 07:48:02;;;;;;;24.13;16.27;;;;;;;5.80;42.88;102585.63;4910488;29;20047;-71
2022/03/22 07:53:12;;;;;;;26.67;16.20;;;;;;;6.04;42.58;102591.13;4907367;29;20033;-71
2022/03/22 07:55:39;;;;;;;27.90;18.02;;;;;;;6.13;42.27;102581.97;4910079;29;20566;-71
2022/03/22 07:58:05;;;;;;;17.50;12.65;;;;;;;6.13;41.81;102584.59;4908823;29;20085;-71
2022/03/22 08:00:34;;;;;;;18.25;13.20;;;;;;;6.18;42.63;102583.88;4907973;29;20096;-71
2022/03/22 08:03:03;;;;;;;19.20;12.93;;;;;;;6.28;42.39;102581.72;4910073;29;20447;-71
2022/03/22 08:05:29;;;;;;;20.55;11.98;;;;;;;6.35;42.39;102582.91;4908566;29;20044;-71
2022/03/22 08:07:54;;;;;;;26.75;17.10;;;;;;;6.45;42.28;102585.09;4907995;29;20084;-71
2022/03/22 08:10:23;;;;;;;31.85;23.13;;;;;;;6.56;42.45;102583.84;4908374;29;20443;-71
2022/03/22 08:12:49;;;;;;;28.25;19.35;;;;;;;6.68;42.42;102587.81;4903945;29;20128;-71
2022/03/22 08:15:15;;;;;;;28.48;19.63;;;;;;;6.80;41.64;102583.09;4908313;29;20043;-71
2022/03/22 08:17:41;;;;;;;28.85;18.98;;;;;;;6.90;40.74;102580.00;4907541;29;20038;-71
2022/03/22 08:20:08;;;;;;;27.00;19.25;;;;;;;7.06;40.25;102578.03;4908500;29;20396;-70
2022/03/22 08:22:45;;;;;;;18.98;12.02;;;;;;;7.14;39.02;102568.72;4905838;29;20071;-71
2022/03/22 08:25:10;;;;;;;23.35;15.90;;;;;;;7.26;39.69;102569.22;4909631;29;20040;-71
2022/03/22 08:27:36;;;;;;;29.48;20.90;;;;;;;7.39;40.39;102571.50;4906965;29;20033;-71
2022/03/22 08:30:03;;;;;;;24.42;15.13;;;;;;;7.55;39.06;102573.00;4909198;29;20047;-71
2022/03/22 08:32:28;;;;;;;20.00;14.55;;;;;;;7.67;39.56;102564.69;4908336;29;20037;-71
2022/03/22 08:34:55;;;;;;;19.42;13.52;;;;;;;7.82;38.25;102561.75;4907329;29;20531;-71
2022/03/22 08:37:20;;;;;;;18.80;12.13;;;;;;;8.01;38.44;102552.81;4903681;29;20060;-70
2022/03/22 08:39:45;;;;;;;23.40;16.65;;;;;;;8.16;38.24;102563.88;4902125;29;20089;-71
2022/03/22 08:42:11;;;;;;;25.23;18.83;;;;;;;8.31;37.94;102548.66;4907917;29;20496;-71
2022/03/22 08:44:36;;;;;;;25.52;18.00;;;;;;;8.46;37.29;102550.03;4908721;29;20404;-71
2022/03/22 08:47:02;;;;;;;29.92;20.23;;;;;;;8.60;37.39;102550.56;4909130;29;20430;-71
2022/03/22 08:49:28;;;;;;;24.42;18.50;;;;;;;8.72;36.78;102545.69;4902810;29;20041;-71
2022/03/22 08:51:53;;;;;;;25.52;15.07;;;;;;;8.82;36.08;102546.88;4906586;29;20041;-71
2022/03/22 08:54:19;;;;;;;18.88;13.98;;;;;;;8.94;36.48;102549.94;4913113;29;20422;-71
2022/03/22 08:56:44;;;;;;;17.45;12.95;;;;;;;9.06;36.28;102550.31;4903905;29;20068;-71
2022/03/22 08:59:10;;;;;;;21.75;15.27;;;;;;;9.18;36.21;102536.66;4908182;29;20118;-71
2022/03/22 09:01:35;;;;;;;18.67;13.30;;;;;;;9.30;36.40;102531.78;4899596;29;20040;-71
2022/03/22 09:06:45;;;;;;;32.70;23.25;;;;;;;9.57;36.07;102522.91;4903207;29;20028;-71
2022/03/22 09:09:10;;;;;;;37.25;24.25;;;;;;;9.70;36.21;102524.19;4900909;29;20558;-71
2022/03/22 09:11:38;;;;;;;19.73;15.27;;;;;;;9.81;34.42;102525.38;4906723;29;20491;-71
2022/03/22 09:14:04;;;;;;;13.15;9.52;;;;;;;9.99;32.46;102514.47;4908779;29;20091;-71
2022/03/22 09:16:31;;;;;;;17.27;10.05;;;;;;;10.19;32.75;102522.91;4900851;29;20047;-71
2022/03/22 09:18:56;;;;;;;17.70;9.20;;;;;;;10.29;33.00;102511.78;4899738;29;20036;-71
2022/03/22 09:21:22;;;;;;;12.15;9.18;;;;;;;10.43;31.73;102515.69;4903918;29;20072;-71
2022/03/22 09:23:47;;;;;;;12.30;8.38;;;;;;;10.53;30.68;102512.44;4905994;29;20035;-71
2022/03/22 09:26:13;;;;;;;14.10;8.93;;;;;;;10.64;31.00;102511.81;4908563;29;20422;-71
2022/03/22 09:28:38;;;;;;;13.00;9.07;;;;;;;10.74;30.93;102513.81;4907016;29;20492;-71
2022/03/22 09:31:04;;;;;;;12.15;9.32;;;;;;;10.82;30.15;102511.38;4906324;29;20041;-71
2022/03/22 09:33:30;;;;;;;12.43;8.18;;;;;;;10.90;30.22;102513.34;4885835;29;20041;-71
2022/03/22 09:35:57;;;;;;;12.27;8.93;;;;;;;11.00;28.39;102503.00;4902465;29;20051;-71
2022/03/22 09:38:23;;;;;;;15.40;10.65;;;;;;;11.10;29.27;102502.34;4902896;29;20034;-71
2022/03/22 09:40:51;;;;;;;14.38;9.85;;;;;;;11.18;28.30;102498.13;4908616;29;20059;-71
2022/03/22 09:43:18;;;;;;;14.10;9.02;;;;;;;11.26;28.72;102488.63;4905644;29;20040;-71
2022/03/22 09:45:45;;;;;;;14.73;10.25;;;;;;;11.37;29.12;102503.00;4908056;29;20032;-71
2022/03/22 09:48:10;;;;;;;13.95;9.23;;;;;;;11.51;29.35;102498.00;4905579;29;20040;-71
2022/03/22 09:53:20;;;;;;;26.17;18.08;;;;;;;11.76;28.71;102494.13;4903110;29;20036;-71
2022/03/22 09:55:45;;;;;;;28.42;20.92;;;;;;;11.94;29.41;102496.25;4900450;29;20032;-71
2022/03/22 09:58:11;;;;;;;17.95;13.48;;;;;;;12.11;29.04;102496.59;4909308;29;20032;-71
2022/03/22 10:00:38;;;;;;;15.30;10.73;;;;;;;12.22;28.79;102483.56;4904554;29;20515;-71
2022/03/22 10:03:03;;;;;;;12.35;9.15;;;;;;;12.43;26.96;102490.97;4906494;29;20127;-72
2022/03/22 10:05:29;;;;;;;12.40;8.60;;;;;;;12.52;27.53;102480.53;4906123;29;20124;-71
2022/03/22 10:08:08;;;;;;;13.60;9.75;;;;;;;12.62;27.31;102476.28;4906178;29;20097;-71
2022/03/22 10:10:34;;;;;;;12.65;8.68;;;;;;;12.71;27.23;102473.81;4904846;29;20092;-71
2022/03/22 10:13:01;;;;;;;11.60;7.63;;;;;;;12.76;26.04;102469.47;4907414;29;20024;-71
2022/03/22 10:15:33;;;;;;;9.75;7.35;;;;;;;12.81;24.63;102466.88;4901488;29;20491;-71
2022/03/22 10:18:07;;;;;;;11.77;8.90;;;;;;;12.88;25.53;102460.81;4904566;29;20384;-72
2022/03/22 10:20:35;;;;;;;11.45;8.73;;;;;;;13.00;24.36;102461.00;4901597;29;20044;-71
2022/03/22 10:23:02;;;;;;;10.27;7.28;;;;;;;13.14;25.33;102463.84;4904133;29;20036;-72
2022/03/22 10:25:31;;;;;;;10.30;7.75;;;;;;;13.13;24.91;102464.72;4900897;29;20078;-71
2022/03/22 10:27:57;;;;;;;12.30;8.13;;;;;;;13.24;24.62;102456.91;4902651;29;20040;-71
2022/03/22 10:30:23;;;;;;;9.68;7.18;;;;;;;13.28;23.41;102459.66;4905552;29;20043;-72
2022/03/22 10:32:53;;;;;;;12.35;7.88;;;;;;;13.36;24.15;102454.44;4906159;29;20040;-72
2022/03/22 10:35:24;;;;;;;9.95;7.68;;;;;;;13.46;24.36;102458.09;4904786;29;20048;-71
2022/03/22 10:38:02;;;;;;;12.35;7.97;;;;;;;13.62;24.72;102452.09;4904363;29;20044;-72
2022/03/22 10:40:40;;;;;;;12.18;7.00;;;;;;;13.74;23.70;102454.03;4904710;29;20044;-71
2022/03/22 10:43:11;;;;;;;10.57;7.13;;;;;;;13.78;23.95;102447.88;4905369;29;20461;-71
2022/03/22 10:45:42;;;;;;;12.45;8.48;;;;;;;13.90;23.62;102445.34;4901073;29;20044;-72
2022/03/22 10:48:08;;;;;;;11.30;7.68;;;;;;;13.95;23.20;102453.38;4902340;29;20480;-71
2022/03/22 10:50:38;;;;;;;9.60;7.28;;;;;;;14.02;23.16;102441.94;4903902;29;20095;-71
2022/03/22 10:53:03;;;;;;;12.02;8.32;;;;;;;14.05;23.24;102433.13;4902518;29;20094;-71
2022/03/22 10:55:28;;;;;;;13.45;7.30;;;;;;;14.14;22.59;102439.38;4905284;29;20039;-72
2022/03/22 10:57:57;;;;;;;15.40;9.05;;;;;;;14.10;21.87;102428.75;4906023;29;20042;-71
2022/03/22 11:00:25;;;;;;;12.32;8.05;;;;;;;14.19;22.21;102432.34;4900978;29;20040;-72
2022/03/22 11:02:53;;;;;;;10.57;8.15;;;;;;;14.34;22.91;102430.75;4902996;29;20049;-71
2022/03/22 11:05:20;;;;;;;12.43;8.02;;;;;;;14.47;23.40;102428.19;4906124;29;20048;-71
2022/03/22 11:07:50;;;;;;;10.07;7.32;;;;;;;14.62;22.65;102422.13;4900717;29;20040;-72
2022/03/22 11:10:25;;;;;;;10.73;7.35;;;;;;;14.69;21.71;102417.75;4901910;29;20051;-72
2022/03/22 11:12:51;;;;;;;10.70;7.25;;;;;;;14.75;21.87;102417.81;4906188;29;20047;-71
2022/03/22 11:15:17;;;;;;;12.27;6.95;;;;;;;14.86;22.25;102410.78;4903730;29;20117;-71
2022/03/22 11:17:47;;;;;;;9.82;7.32;;;;;;;15.02;22.56;102410.88;4905337;29;20131;-71
2022/03/22 11:20:14;;;;;;;7.78;6.25;;;;;;;15.10;22.24;102406.47;4912272;29;20051;-71
2022/03/22 11:22:49;;;;;;;10.82;7.45;;;;;;;15.21;22.61;102396.75;4903994;29;20047;-71
2022/03/22 11:25:18;;;;;;;11.40;7.60;;;;;;;15.31;22.33;102403.03;4898634;29;20053;-72
2022/03/22 11:27:56;;;;;;;11.95;8.07;;;;;;;15.42;21.64;102393.31;4903293;29;20059;-71
2022/03/22 11:30:22;;;;;;;13.70;9.70;;;;;;;15.55;22.02;102388.91;4902764;29;20134;-71
2022/03/22 11:35:31;;;;;;;9.05;5.55;;;;;;;15.65;19.84;102380.06;4904205;29;20043;-72
2022/03/22 11:38:00;;;;;;;7.45;6.00;;;;;;;15.65;19.94;102379.19;4901959;29;20045;-71
2022/03/22 11:43:15;;;;;;;10.15;7.63;;;;;;;16.20;19.60;102371.28;4895877;29;20040;-72
2022/03/22 11:45:51;;;;;;;9.80;7.70;;;;;;;16.48;19.77;102372.16;4897347;29;20040;-72
2022/03/22 11:48:17;;;;;;;12.68;7.32;;;;;;;16.71;20.07;102363.22;4894847;29;20536;-72
2022/03/22 11:50:44;;;;;;;9.15;7.00;;;;;;;16.78;19.66;102359.69;4902862;29;20092;-72